Time;durP1;ratioP1;P1;durP2;ratioP2;P2;SDS_P1;SDS_P2;PMS_P1;PMS_P2;Temp;Humidity;BMP_temperature;BMP_pressure;BME280_temperature;BME280_humidity;BME280_pressure;Samples;Min_cycle;Max_cycle;Signal;HPM_P1;HPM_P2
2022/11/13 00:01:17;;;;;;;7.60;4.80;;;;;;;12.92;77.92;95946.13;4996648;28;20197;-90
2022/11/13 00:03:46;;;;;;;6.10;5.07;;;;;;;12.78;77.79;95921.53;4997431;28;20225;-91
2022/11/13 00:06:14;;;;;;;5.13;4.63;;;;;;;13.07;77.78;95969.75;4996582;28;20715;-89
2022/11/13 00:08:41;;;;;;;5.33;4.77;;;;;;;12.97;77.95;95951.69;4995794;28;20232;-89
2022/11/13 00:11:13;;;;;;;5.83;5.23;;;;;;;12.74;77.78;95914.19;4996054;28;20697;-90
2022/11/13 00:13:41;;;;;;;6.07;4.90;;;;;;;13.17;77.80;95980.09;5001439;28;20199;-90
2022/11/13 00:16:13;;;;;;;4.97;4.30;;;;;;;13.12;77.85;95970.19;5005761;28;20206;-89
2022/11/13 00:18:40;;;;;;;6.27;4.60;;;;;;;12.94;77.92;95944.22;5004424;28;20288;-89
2022/11/13 00:21:11;;;;;;;6.83;4.43;;;;;;;13.19;78.06;95986.78;5006227;28;20197;-91
2022/11/13 00:23:38;;;;;;;4.50;4.10;;;;;;;13.15;77.90;95975.09;5015389;28;20188;-90
2022/11/13 00:26:07;;;;;;;5.37;4.10;;;;;;;12.85;77.82;95923.59;5017621;28;20193;-91
2022/11/13 00:28:34;;;;;;;4.60;4.10;;;;;;;13.03;78.06;95952.97;5016975;28;20184;-90
2022/11/13 00:31:03;;;;;;;5.37;4.17;;;;;;;13.02;77.84;95952.16;5018121;28;20216;-92
2022/11/13 00:33:30;;;;;;;5.77;4.30;;;;;;;13.14;78.04;95972.66;5017648;28;20208;-90
2022/11/13 00:36:04;;;;;;;5.30;4.40;;;;;;;13.04;78.00;95957.19;5015748;28;20243;-89
2022/11/13 00:38:33;;;;;;;8.10;5.17;;;;;;;13.22;77.77;95989.13;5011547;28;20236;-91
2022/11/13 00:41:01;;;;;;;5.40;4.60;;;;;;;13.22;77.78;95989.13;5014076;28;20197;-90
2022/11/13 00:43:28;;;;;;;5.10;4.10;;;;;;;13.22;77.94;95986.56;5008117;28;20181;-90
2022/11/13 00:45:55;;;;;;;4.47;3.87;;;;;;;13.23;77.94;95992.50;5010120;28;20196;-88
2022/11/13 00:51:06;;;;;;;6.03;4.60;;;;;;;13.05;78.07;95953.66;5005044;28;20271;-91
2022/11/13 00:53:35;;;;;;;5.27;4.77;;;;;;;13.17;77.87;95975.81;5001869;28;20216;-87
2022/11/13 00:56:02;;;;;;;4.77;4.20;;;;;;;13.16;77.92;95974.16;4999597;28;20186;-90
2022/11/13 00:58:29;;;;;;;4.27;3.90;;;;;;;13.25;77.91;95980.34;4997665;28;20232;-88
2022/11/13 01:01:03;;;;;;;5.33;4.80;;;;;;;13.25;78.16;95978.59;5006030;28;20197;-89
2022/11/13 01:03:30;;;;;;;6.23;5.07;;;;;;;13.26;78.02;95979.44;5021298;28;20250;-91
2022/11/13 01:05:57;;;;;;;6.53;4.90;;;;;;;13.12;78.22;95957.34;5000064;28;20187;-91
2022/11/13 01:08:24;;;;;;;6.80;4.73;;;;;;;13.04;78.03;95939.19;5014193;28;20196;-91
2022/11/13 01:10:52;;;;;;;5.30;4.80;;;;;;;12.80;77.94;95917.06;5013820;28;20223;-92
2022/11/13 01:13:20;;;;;;;5.83;5.27;;;;;;;13.04;78.12;95941.78;5013973;28;20220;-91
2022/11/13 01:15:47;;;;;;;5.77;5.23;;;;;;;13.26;78.06;95982.81;5014278;28;20199;-92
2022/11/13 01:18:17;;;;;;;6.57;5.13;;;;;;;13.24;78.16;95971.84;5013748;28;20204;-92
2022/11/13 01:20:44;;;;;;;8.33;5.53;;;;;;;13.17;78.01;95959.56;5013009;28;20196;-92
2022/11/13 01:23:11;;;;;;;6.13;5.13;;;;;;;13.17;77.91;95962.13;5013794;28;20196;-91
2022/11/13 01:25:38;;;;;;;5.60;5.00;;;;;;;13.27;77.86;95960.50;5013131;28;20203;-92
2022/11/13 01:28:07;;;;;;;5.60;5.10;;;;;;;13.14;77.92;95947.78;5013853;28;20199;-92
2022/11/13 01:30:34;;;;;;;5.30;4.80;;;;;;;13.26;78.06;95974.28;5013189;28;20235;-91
2022/11/13 01:33:00;;;;;;;6.67;5.63;;;;;;;13.24;77.95;95966.69;5012802;28;20200;-92
2022/11/13 01:35:28;;;;;;;5.87;5.30;;;;;;;13.03;77.84;95930.66;5014171;28;20211;-91
2022/11/13 01:37:55;;;;;;;6.03;4.80;;;;;;;13.27;77.98;95968.22;5013282;28;20232;-92
2022/11/13 01:40:22;;;;;;;5.57;5.07;;;;;;;13.20;78.06;95949.84;4995786;28;20218;-93
2022/11/13 01:42:49;;;;;;;6.80;5.70;;;;;;;13.21;78.08;95956.66;5013235;28;20308;-91
2022/11/13 01:45:54;;;;;;;6.30;5.70;;;;;;;13.27;78.10;95948.47;5012625;28;20312;-92
2022/11/13 01:48:22;;;;;;;6.40;5.20;;;;;;;13.18;78.02;95938.91;5013644;28;20184;-90
2022/11/13 01:50:50;;;;;;;5.87;5.27;;;;;;;13.25;78.09;95941.81;5017306;28;20239;-89
2022/11/13 01:53:17;;;;;;;5.80;5.17;;;;;;;13.20;78.11;95937.00;5015434;28;20215;-90
2022/11/13 01:55:44;;;;;;;6.30;5.70;;;;;;;13.28;78.04;95939.00;5015117;28;20234;-89
2022/11/13 01:58:13;;;;;;;6.20;5.60;;;;;;;13.27;78.00;95953.59;5013000;28;20702;-90
2022/11/13 02:00:40;;;;;;;6.50;5.30;;;;;;;13.06;78.08;95911.63;5015077;28;20193;-90
2022/11/13 02:03:07;;;;;;;6.07;5.43;;;;;;;12.92;77.95;95894.75;5015420;28;20192;-89
2022/11/13 02:05:35;;;;;;;7.30;5.47;;;;;;;13.22;78.16;95937.75;5016181;28;20196;-88
2022/11/13 02:08:03;;;;;;;7.87;5.57;;;;;;;12.94;78.15;95898.00;5016726;28;20660;-89
2022/11/13 02:10:30;;;;;;;6.30;5.70;;;;;;;13.21;78.02;95941.25;5016769;28;20234;-92
2022/11/13 02:12:57;;;;;;;6.23;5.37;;;;;;;13.27;78.06;95956.19;5020574;28;20671;-91
2022/11/13 02:15:29;;;;;;;6.10;5.50;;;;;;;12.99;78.00;95907.91;5023979;28;20244;-91
2022/11/13 02:17:59;;;;;;;9.37;5.83;;;;;;;13.21;78.25;95937.81;5004502;28;20210;-92
2022/11/13 02:20:35;;;;;;;6.63;5.93;;;;;;;13.15;78.00;95933.19;5024807;28;20630;-91
2022/11/13 02:23:14;;;;;;;7.97;5.27;;;;;;;13.29;78.04;95953.47;5019722;28;20202;-92
2022/11/13 02:25:44;;;;;;;7.83;6.27;;;;;;;13.28;78.08;95944.97;5017740;28;20181;-92
2022/11/13 02:28:13;;;;;;;5.50;4.97;;;;;;;13.29;77.92;95943.19;5017833;28;20196;-91
2022/11/13 02:30:40;;;;;;;6.80;5.63;;;;;;;13.29;78.04;95948.34;5000305;28;20885;-89
2022/11/13 02:33:22;;;;;;;6.27;5.53;;;;;;;13.25;77.99;95936.69;5019404;28;20236;-92
2022/11/13 02:35:49;;;;;;;6.10;5.40;;;;;;;13.29;77.96;95940.63;5019063;28;20687;-88
2022/11/13 02:38:16;;;;;;;6.73;5.60;;;;;;;13.27;77.97;95945.91;5018493;28;20703;-91
2022/11/13 02:40:45;;;;;;;7.23;5.67;;;;;;;12.92;78.06;95884.50;5018786;28;20200;-93
2022/11/13 02:43:12;;;;;;;9.43;5.63;;;;;;;13.27;77.96;95943.34;5029359;28;20200;-91
2022/11/13 02:45:39;;;;;;;7.57;5.97;;;;;;;12.80;77.93;95865.75;5035320;28;20204;-94
2022/11/13 02:48:09;;;;;;;7.50;5.47;;;;;;;13.00;78.01;95896.72;5036264;28;20192;-91
2022/11/13 02:50:37;;;;;;;6.87;6.17;;;;;;;13.05;77.95;95900.53;5026364;28;20220;-91
2022/11/13 02:53:04;;;;;;;8.53;5.60;;;;;;;13.25;78.06;95929.78;5017310;28;20188;-91
2022/11/13 02:55:31;;;;;;;6.07;5.47;;;;;;;13.13;77.81;95914.53;5017834;28;20196;-91
2022/11/13 02:58:00;;;;;;;6.57;5.93;;;;;;;13.14;78.07;95913.59;5016720;28;20195;-91
2022/11/13 03:00:27;;;;;;;6.47;5.80;;;;;;;13.15;77.97;95930.63;5016356;28;20279;-93
2022/11/13 03:02:55;;;;;;;8.17;5.67;;;;;;;13.26;78.04;95940.91;5017798;28;20200;-90
2022/11/13 03:05:22;;;;;;;6.57;5.70;;;;;;;13.21;77.92;95930.97;5026369;28;20220;-88
2022/11/13 03:07:50;;;;;;;7.80;7.00;;;;;;;13.16;77.89;95927.09;5027295;28;20181;-88
2022/11/13 03:10:17;;;;;;;7.10;6.40;;;;;;;12.81;78.13;95867.38;5027421;28;20727;-89
2022/11/13 03:12:44;;;;;;;7.37;6.67;;;;;;;13.25;77.92;95934.91;5025815;28;20210;-89
2022/11/13 03:15:14;;;;;;;9.07;6.60;;;;;;;13.18;77.77;95938.91;5026118;28;20260;-89
2022/11/13 03:17:41;;;;;;;8.63;7.20;;;;;;;13.12;77.89;95926.53;5027578;28;20202;-89
2022/11/13 03:20:08;;;;;;;7.60;6.80;;;;;;;13.16;77.93;95930.50;5035418;28;20279;-88
2022/11/13 03:22:35;;;;;;;7.00;6.30;;;;;;;13.11;77.81;95916.41;5036920;28;20267;-90
2022/11/13 03:25:02;;;;;;;7.97;6.93;;;;;;;13.00;77.93;95902.69;5031659;28;20208;-91
2022/11/13 03:27:31;;;;;;;7.73;6.27;;;;;;;13.06;77.84;95902.16;5030763;28;20196;-89
2022/11/13 03:29:58;;;;;;;7.80;7.00;;;;;;;13.25;78.07;95941.81;5037033;28;20224;-90
2022/11/13 03:32:29;;;;;;;9.00;6.70;;;;;;;13.20;77.95;95929.31;5022459;28;20188;-92
2022/11/13 03:34:56;;;;;;;7.93;6.70;;;;;;;13.25;77.95;95934.09;5038831;28;20255;-90
2022/11/13 03:37:23;;;;;;;7.97;6.47;;;;;;;13.20;78.08;95929.31;5035916;28;20631;-89
2022/11/13 03:39:50;;;;;;;8.87;7.97;;;;;;;12.78;77.81;95869.38;5038303;28;20172;-91
2022/11/13 03:42:19;;;;;;;7.30;6.57;;;;;;;12.86;78.05;95879.81;5036123;28;20184;-89
2022/11/13 03:44:46;;;;;;;7.73;6.93;;;;;;;13.19;78.08;95943.09;5037290;28;20215;-89
2022/11/13 03:47:20;;;;;;;8.97;8.07;;;;;;;13.18;78.06;95935.53;5034478;28;20181;-92
2022/11/13 03:49:48;;;;;;;8.73;7.67;;;;;;;12.95;77.80;95911.66;5017953;28;20196;-90
2022/11/13 03:52:15;;;;;;;9.93;7.70;;;;;;;12.89;77.95;95887.28;5035431;28;20203;-90
2022/11/13 03:54:43;;;;;;;8.90;7.53;;;;;;;13.24;77.83;95946.13;5031034;28;20551;-90
2022/11/13 03:57:10;;;;;;;10.97;7.07;;;;;;;13.29;77.96;95951.72;5015029;28;20200;-91
2022/11/13 03:59:37;;;;;;;7.63;6.87;;;;;;;13.21;77.72;95941.25;5015170;28;20283;-88
2022/11/13 04:02:04;;;;;;;10.53;8.23;;;;;;;13.22;77.98;95937.75;5014559;28;20260;-89
2022/11/13 04:04:31;;;;;;;10.33;8.17;;;;;;;13.03;77.94;95915.25;5015794;28;20212;-90
2022/11/13 04:07:00;;;;;;;8.90;8.00;;;;;;;13.30;77.61;95950.00;5015068;28;20204;-88
2022/11/13 04:09:26;;;;;;;9.20;7.60;;;;;;;13.30;77.85;95955.13;5015045;28;20202;-88
2022/11/13 04:11:53;;;;;;;9.10;8.07;;;;;;;13.04;77.90;95909.19;5014659;28;20208;-90
2022/11/13 04:14:20;;;;;;;9.00;7.50;;;;;;;13.30;77.79;95950.00;5015341;28;20254;-91
2022/11/13 04:16:47;;;;;;;9.20;8.07;;;;;;;13.30;77.70;95955.13;5015071;28;20207;-90
2022/11/13 04:19:14;;;;;;;10.33;8.77;;;;;;;13.12;77.59;95911.13;5014497;28;20198;-91
2022/11/13 04:21:41;;;;;;;9.23;7.60;;;;;;;13.11;77.75;95909.50;5014817;28;20227;-91
2022/11/13 04:24:10;;;;;;;9.17;7.67;;;;;;;13.29;77.72;95932.91;5013835;28;20208;-92
2022/11/13 04:26:38;;;;;;;9.37;8.47;;;;;;;12.96;77.93;95883.31;5016150;28;20215;-90
2022/11/13 04:29:04;;;;;;;12.57;8.87;;;;;;;13.24;77.90;95927.34;5016214;28;20197;-91
2022/11/13 04:31:32;;;;;;;9.27;7.77;;;;;;;13.18;77.71;95915.78;5016108;28;20228;-90
2022/11/13 04:33:59;;;;;;;9.93;8.93;;;;;;;13.33;77.83;95943.78;5015882;28;20192;-91
2022/11/13 04:36:35;;;;;;;9.50;7.93;;;;;;;13.22;77.71;95929.22;5015765;28;20200;-91
2022/11/13 04:39:02;;;;;;;10.37;7.80;;;;;;;13.33;77.79;95949.72;4996293;28;20185;-90
2022/11/13 04:44:16;;;;;;;8.80;7.53;;;;;;;13.12;77.55;95910.31;5011399;28;20192;-91
2022/11/13 04:46:43;;;;;;;9.10;8.20;;;;;;;13.22;77.96;95934.34;5017305;28;20213;-90
2022/11/13 04:49:10;;;;;;;9.03;7.70;;;;;;;12.97;77.89;95884.13;5013845;28;20193;-89
2022/11/13 04:51:40;;;;;;;8.97;8.00;;;;;;;13.14;78.00;95914.41;5009381;28;20311;-91
2022/11/13 04:54:07;;;;;;;8.97;7.97;;;;;;;13.33;77.96;95941.19;5005930;28;20216;-89
2022/11/13 04:56:36;;;;;;;9.67;8.07;;;;;;;13.16;77.95;95915.06;4989294;28;20212;-90
2022/11/13 04:59:03;;;;;;;9.63;8.57;;;;;;;13.10;78.01;95913.00;5006144;28;20204;-92
2022/11/13 05:01:30;;;;;;;9.80;8.80;;;;;;;13.05;77.88;95899.72;5008595;28;20189;-89
2022/11/13 05:03:57;;;;;;;11.03;9.17;;;;;;;12.78;77.99;95867.63;5009112;28;20195;-88
2022/11/13 05:06:24;;;;;;;9.73;8.43;;;;;;;13.25;77.77;95936.69;5011712;28;20225;-88
2022/11/13 05:08:51;;;;;;;10.30;9.30;;;;;;;12.95;78.06;95886.81;5014094;28;20264;-91
2022/11/13 05:11:18;;;;;;;11.40;9.70;;;;;;;13.23;78.10;95923.97;5013573;28;20296;-91
2022/11/13 05:13:49;;;;;;;11.83;10.03;;;;;;;13.36;77.88;95956.38;5014421;28;20207;-93
2022/11/13 05:16:16;;;;;;;12.13;10.77;;;;;;;13.18;78.02;95931.19;5014088;28;20253;-92
2022/11/13 05:18:43;;;;;;;12.30;9.67;;;;;;;13.26;78.00;95941.72;5012391;28;20199;-91
2022/11/13 05:23:57;;;;;;;12.57;10.40;;;;;;;13.00;78.14;95897.53;5005630;28;20794;-90
2022/11/13 05:26:31;;;;;;;12.33;10.93;;;;;;;12.81;78.15;95867.38;4951134;29;20199;-90
2022/11/13 05:29:00;;;;;;;13.57;10.67;;;;;;;13.37;77.99;95966.53;4953103;29;20275;-90
2022/11/13 05:31:28;;;;;;;12.90;11.50;;;;;;;13.01;77.96;95904.28;4951601;29;20282;-91
2022/11/13 05:33:55;;;;;;;13.93;11.20;;;;;;;13.27;77.95;95945.91;4951289;29;20230;-90
2022/11/13 05:36:23;;;;;;;12.47;10.83;;;;;;;13.39;77.94;95958.72;4956076;29;20203;-92
2022/11/13 05:38:50;;;;;;;13.17;11.47;;;;;;;13.33;78.06;95952.28;4970461;29;20206;-90
2022/11/13 05:41:19;;;;;;;13.57;11.27;;;;;;;13.38;77.81;95970.72;4965704;29;20198;-92
2022/11/13 05:43:47;;;;;;;14.77;11.87;;;;;;;12.95;77.98;95901.38;4960990;29;20615;-90
2022/11/13 05:46:18;;;;;;;16.27;11.83;;;;;;;13.39;78.09;95969.81;4961300;29;20222;-91
2022/11/13 05:48:49;;;;;;;14.30;11.77;;;;;;;13.32;77.90;95965.28;4960123;29;20202;-91
2022/11/13 05:51:18;;;;;;;14.67;12.23;;;;;;;13.42;77.87;95977.25;4997168;28;20295;-91
2022/11/13 05:53:45;;;;;;;15.03;12.80;;;;;;;13.38;77.88;95970.72;5023833;28;20195;-92
2022/11/13 05:56:15;;;;;;;15.40;12.67;;;;;;;13.39;77.94;95969.00;5020976;28;20199;-90
2022/11/13 05:58:43;;;;;;;17.63;12.23;;;;;;;13.33;78.01;95961.75;5021541;28;20655;-89
2022/11/13 06:01:13;;;;;;;13.67;12.20;;;;;;;13.35;77.89;95973.56;5021016;28;20284;-90
2022/11/13 06:03:42;;;;;;;16.23;12.40;;;;;;;13.05;77.59;95913.38;5021030;28;20204;-91
2022/11/13 06:06:12;;;;;;;14.53;12.63;;;;;;;13.46;77.97;95978.63;5018838;28;20198;-90
2022/11/13 06:08:40;;;;;;;16.67;13.73;;;;;;;13.31;77.89;95964.47;5019517;28;20187;-92
2022/11/13 06:11:14;;;;;;;18.00;13.23;;;;;;;13.40;77.75;95975.75;5019649;28;20228;-91
2022/11/13 06:13:42;;;;;;;18.17;14.53;;;;;;;13.51;77.66;95994.53;5021107;28;20282;-90
2022/11/13 06:16:14;;;;;;;16.07;13.17;;;;;;;13.10;77.42;95919.91;5020690;28;20218;-91
2022/11/13 06:18:47;;;;;;;15.33;12.77;;;;;;;13.45;77.54;95983.91;5020595;28;20188;-90
2022/11/13 06:21:16;;;;;;;17.60;12.73;;;;;;;13.44;77.46;95977.94;5020389;28;20847;-90
2022/11/13 06:23:44;;;;;;;18.57;14.20;;;;;;;13.53;77.55;95978.97;5022824;28;20208;-90
2022/11/13 06:26:13;;;;;;;17.80;14.87;;;;;;;13.25;77.40;95936.69;5018830;28;20207;-89
2022/11/13 06:28:40;;;;;;;16.03;13.33;;;;;;;13.60;77.18;95992.97;5020736;28;20188;-88
2022/11/13 06:31:13;;;;;;;16.23;13.23;;;;;;;13.28;77.06;95942.38;5017676;28;20252;-92
2022/11/13 06:33:43;;;;;;;17.50;13.47;;;;;;;13.45;77.00;95965.91;5017319;28;20193;-88
2022/11/13 06:38:58;;;;;;;19.80;14.20;;;;;;;13.50;77.04;95971.50;5033894;28;20234;-90
2022/11/13 06:41:30;;;;;;;15.83;12.57;;;;;;;13.70;77.28;96001.56;5034802;28;20196;-86
2022/11/13 06:44:00;;;;;;;16.00;12.93;;;;;;;13.72;77.03;95997.09;5034893;28;20231;-90
2022/11/13 06:46:31;;;;;;;16.97;12.90;;;;;;;13.74;76.76;95997.78;5037475;28;20338;-89
2022/11/13 06:48:59;;;;;;;16.90;13.53;;;;;;;13.22;76.82;95914.63;5038886;28;20212;-88
2022/11/13 06:51:29;;;;;;;17.70;13.53;;;;;;;13.69;76.74;95987.06;5035374;28;20230;-86
2022/11/13 06:54:01;;;;;;;18.83;13.73;;;;;;;13.25;76.82;95908.41;5028324;28;20208;-88
2022/11/13 06:56:28;;;;;;;18.77;13.77;;;;;;;13.83;76.76;95992.84;5029321;28;20200;-90
2022/11/13 06:59:05;;;;;;;17.77;13.70;;;;;;;13.77;76.65;95989.84;5027842;28;20187;-89
2022/11/13 07:01:38;;;;;;;15.97;13.50;;;;;;;13.86;76.56;95985.69;5012795;28;20200;-92
2022/11/13 07:04:05;;;;;;;17.90;13.73;;;;;;;13.55;76.23;95938.53;5027090;28;20199;-89
2022/11/13 07:06:34;;;;;;;16.63;13.00;;;;;;;13.56;76.62;95929.88;5023931;28;20199;-89
2022/11/13 07:09:03;;;;;;;14.80;12.93;;;;;;;13.70;76.31;95951.88;5023035;28;20192;-88
2022/11/13 07:11:33;;;;;;;16.00;13.37;;;;;;;13.97;76.29;95990.75;5022088;28;20227;-92
2022/11/13 07:14:04;;;;;;;17.77;14.00;;;;;;;13.91;76.26;95980.19;5021865;28;20205;-89
2022/11/13 07:16:35;;;;;;;16.57;12.77;;;;;;;14.03;76.14;95997.16;5021162;28;20188;-91
2022/11/13 07:19:06;;;;;;;16.40;13.10;;;;;;;14.06;76.08;96002.84;5022202;28;20275;-90
2022/11/13 07:21:46;;;;;;;16.47;13.60;;;;;;;13.90;75.89;95975.94;5018956;28;20648;-89
2022/11/13 07:24:14;;;;;;;16.20;13.40;;;;;;;14.13;75.78;96004.94;5020573;28;20204;-90
2022/11/13 07:26:45;;;;;;;18.23;14.17;;;;;;;14.05;75.88;95983.22;5026079;28;20204;-88
2022/11/13 07:29:12;;;;;;;16.07;13.47;;;;;;;14.08;75.81;95978.78;5025657;28;20196;-90
2022/11/13 07:31:44;;;;;;;17.30;13.97;;;;;;;13.79;75.80;95922.84;5023497;28;20227;-89
2022/11/13 07:34:13;;;;;;;17.07;14.30;;;;;;;14.04;75.63;95958.44;5024629;28;20222;-90
2022/11/13 07:37:28;;;;;;;20.13;13.03;;;;;;;14.33;75.43;95993.78;5034866;28;20196;-88
2022/11/13 07:40:09;;;;;;;13.77;12.30;;;;;;;14.38;75.36;96001.94;5011849;28;20278;-88
2022/11/13 07:42:42;;;;;;;15.20;13.33;;;;;;;14.38;75.21;95996.81;5004572;28;20221;-90
2022/11/13 07:45:10;;;;;;;15.83;12.37;;;;;;;14.51;75.17;96009.50;5003868;28;20561;-88
2022/11/13 07:47:37;;;;;;;16.13;13.67;;;;;;;14.55;74.84;96003.94;5006258;28;20197;-88
2022/11/13 07:50:07;;;;;;;17.17;13.23;;;;;;;14.43;74.92;95975.81;5008500;28;20205;-86
2022/11/13 07:52:38;;;;;;;16.80;13.90;;;;;;;14.49;74.58;95983.03;5006846;28;20755;-86
2022/11/13 07:55:12;;;;;;;18.43;14.07;;;;;;;14.41;74.59;95962.25;5009249;28;20189;-86
2022/11/13 07:57:41;;;;;;;16.73;13.73;;;;;;;14.76;74.46;96008.19;5010116;28;20244;-88
2022/11/13 08:00:15;;;;;;;17.97;14.13;;;;;;;14.77;74.32;95997.78;5010411;28;20224;-88
2022/11/13 08:02:49;;;;;;;20.07;13.63;;;;;;;14.49;74.45;95947.00;5003887;28;20197;-88
2022/11/13 08:05:20;;;;;;;16.23;13.70;;;;;;;14.90;74.12;96004.47;5000324;28;20215;-89
2022/11/13 08:07:48;;;;;;;19.70;14.20;;;;;;;14.85;74.14;95986.81;4998166;28;20231;-90
2022/11/13 08:10:23;;;;;;;18.77;14.60;;;;;;;15.00;73.97;96003.53;5000431;28;20193;-87
2022/11/13 08:12:59;;;;;;;17.80;14.23;;;;;;;14.76;73.94;95962.66;4998808;28;20229;-88
2022/11/13 08:15:26;;;;;;;22.87;13.50;;;;;;;15.11;74.01;95992.31;4997143;28;20240;-89
2022/11/13 08:18:00;;;;;;;17.63;15.00;;;;;;;15.04;73.82;95980.91;4999951;28;20201;-88
2022/11/13 08:20:35;;;;;;;16.93;13.57;;;;;;;15.15;73.60;95988.50;5003352;28;20197;-90
2022/11/13 08:23:06;;;;;;;17.00;14.23;;;;;;;15.29;73.63;96008.75;5004774;28;20225;-89
2022/11/13 08:25:39;;;;;;;19.03;14.30;;;;;;;15.27;73.36;95984.84;5004230;28;20195;-88
2022/11/13 08:28:07;;;;;;;15.17;13.47;;;;;;;15.18;73.20;95962.47;5006273;28;20229;-89
2022/11/13 08:30:39;;;;;;;18.57;13.83;;;;;;;15.45;73.13;96002.22;5006294;28;20207;-91
2022/11/13 08:33:06;;;;;;;15.67;13.97;;;;;;;15.51;72.95;96005.09;5005299;28;20228;-90
2022/11/13 08:35:34;;;;;;;16.60;13.83;;;;;;;15.39;72.63;95970.06;5003978;28;20205;-90
2022/11/13 08:38:02;;;;;;;17.77;14.43;;;;;;;15.39;72.38;95967.50;5009885;28;20232;-88
2022/11/13 08:40:29;;;;;;;19.17;15.10;;;;;;;15.29;72.21;95946.06;5018733;28;20196;-89
2022/11/13 08:43:00;;;;;;;21.50;14.53;;;;;;;15.70;71.86;96014.59;5020162;28;20210;-91
2022/11/13 08:45:33;;;;;;;21.70;15.47;;;;;;;15.43;71.73;95963.69;5028106;28;20211;-90
2022/11/13 08:48:01;;;;;;;18.57;14.63;;;;;;;15.74;71.74;96018.53;5035292;28;20188;-89
2022/11/13 08:50:29;;;;;;;18.90;15.33;;;;;;;15.41;71.55;95951.88;5027720;28;20201;-88
2022/11/13 08:52:57;;;;;;;18.93;14.60;;;;;;;15.78;71.22;96001.84;5016625;28;20805;-91
2022/11/13 08:55:25;;;;;;;18.07;15.37;;;;;;;15.83;71.32;96011.75;5020185;28;20199;-90
2022/11/13 08:57:57;;;;;;;17.40;14.97;;;;;;;15.97;71.13;96028.56;5014771;28;20214;-90
2022/11/13 09:00:30;;;;;;;17.77;14.83;;;;;;;15.89;70.83;96006.06;5014441;28;20207;-92
2022/11/13 09:03:00;;;;;;;20.13;15.07;;;;;;;16.05;70.81;96024.34;5015271;28;20208;-91
2022/11/13 09:05:28;;;;;;;19.17;15.10;;;;;;;16.00;70.69;96005.88;5017677;28;20189;-90
2022/11/13 09:07:57;;;;;;;18.53;15.07;;;;;;;16.15;70.57;96026.09;5017457;28;20275;-92
2022/11/13 09:10:25;;;;;;;20.57;14.77;;;;;;;16.21;70.47;96023.78;5023856;28;20231;-88
2022/11/13 09:12:57;;;;;;;17.47;14.80;;;;;;;16.30;70.42;96025.50;5022159;28;20228;-88
2022/11/13 09:15:30;;;;;;;21.70;15.80;;;;;;;16.19;70.29;96006.78;5021418;28;20185;-88
2022/11/13 09:18:06;;;;;;;17.33;15.53;;;;;;;16.15;70.22;95980.47;5026814;28;20203;-88
2022/11/13 09:20:52;;;;;;;19.00;15.87;;;;;;;16.53;69.91;96020.81;5028854;28;20192;-88
2022/11/13 09:23:19;;;;;;;17.40;15.50;;;;;;;16.58;69.93;96017.84;5031578;28;20195;-88
2022/11/13 09:25:46;;;;;;;19.03;14.70;;;;;;;16.52;69.63;95993.38;5029454;28;20224;-90
2022/11/13 09:28:13;;;;;;;16.80;14.73;;;;;;;16.79;69.27;96015.03;5028532;28;20188;-89
2022/11/13 09:30:42;;;;;;;16.60;14.63;;;;;;;16.71;69.04;95994.22;5027822;28;20250;-89
2022/11/13 09:33:14;;;;;;;19.30;16.03;;;;;;;16.90;68.98;96011.47;5027732;28;20224;-90
2022/11/13 09:35:42;;;;;;;19.47;16.00;;;;;;;17.02;69.03;96013.69;5028185;28;20227;-89
2022/11/13 09:38:11;;;;;;;18.83;14.77;;;;;;;17.10;68.54;96009.56;5028111;28;20231;-89
2022/11/13 09:40:43;;;;;;;17.90;16.00;;;;;;;17.08;68.33;95990.81;5026620;28;20219;-89
2022/11/13 09:43:23;;;;;;;19.37;15.90;;;;;;;17.26;68.16;96004.56;5028435;28;20188;-90
2022/11/13 09:45:57;;;;;;;19.13;16.33;;;;;;;17.34;67.92;95998.66;5032478;28;20202;-89
2022/11/13 09:48:33;;;;;;;17.07;15.27;;;;;;;17.41;68.13;95997.13;5033380;28;20192;-91
2022/11/13 09:51:06;;;;;;;17.50;15.00;;;;;;;17.45;68.18;95991.50;5036144;28;20199;-92
2022/11/13 09:53:36;;;;;;;18.20;15.77;;;;;;;17.43;67.84;95985.66;5035935;28;20208;-90
2022/11/13 09:56:17;;;;;;;18.03;16.03;;;;;;;17.56;67.58;95996.44;5035769;28;20180;-88
2022/11/13 09:58:50;;;;;;;18.90;16.77;;;;;;;17.52;67.41;95977.00;5036264;28;20184;-88
2022/11/13 10:01:28;;;;;;;15.93;14.23;;;;;;;17.51;67.29;95964.22;5034847;28;20227;-88
2022/11/13 10:04:03;;;;;;;18.47;16.03;;;;;;;17.47;67.13;95952.56;5035447;28;20597;-89
2022/11/13 10:06:40;;;;;;;22.03;16.03;;;;;;;17.77;67.07;95985.81;5033358;28;20192;-87
2022/11/13 10:09:23;;;;;;;17.33;15.30;;;;;;;17.75;66.72;95972.22;5024389;28;20211;-87
2022/11/13 10:11:57;;;;;;;18.77;15.90;;;;;;;17.88;66.57;95989.13;5020628;28;20219;-89
2022/11/13 10:14:34;;;;;;;19.00;16.10;;;;;;;17.93;66.56;95989.50;5026658;28;20184;-89
2022/11/13 10:17:16;;;;;;;17.03;15.23;;;;;;;17.95;66.32;95987.56;5016198;28;20196;-91
2022/11/13 10:19:57;;;;;;;17.60;15.23;;;;;;;17.98;66.09;95989.84;5032369;28;20193;-90
2022/11/13 10:22:30;;;;;;;19.03;16.23;;;;;;;17.75;65.93;95946.34;5034329;28;20192;-92
2022/11/13 10:25:09;;;;;;;22.33;16.37;;;;;;;18.02;65.74;95983.41;5036931;28;20197;-90
2022/11/13 10:27:36;;;;;;;18.13;16.17;;;;;;;17.98;65.49;95974.31;5032514;28;20188;-91
2022/11/13 10:30:04;;;;;;;20.07;15.33;;;;;;;18.04;65.37;95981.47;5032588;28;20281;-90
2022/11/13 10:32:35;;;;;;;18.33;15.80;;;;;;;18.04;65.01;95973.69;5021861;28;20219;-91
2022/11/13 10:35:27;;;;;;;16.97;15.20;;;;;;;17.97;65.20;95965.75;5025000;28;20192;-90
2022/11/13 10:38:02;;;;;;;17.40;14.93;;;;;;;18.02;64.94;95976.44;5017044;28;20235;-89
2022/11/13 10:40:33;;;;;;;17.97;16.03;;;;;;;17.81;65.08;95950.09;5017286;28;20207;-92
2022/11/13 10:43:14;;;;;;;17.80;15.77;;;;;;;17.61;65.19;95913.19;5017243;28;20199;-89
2022/11/13 10:45:45;;;;;;;18.53;16.53;;;;;;;17.90;65.31;95950.97;5025434;28;20208;-90
2022/11/13 10:48:29;;;;;;;17.30;15.47;;;;;;;17.57;64.99;95898.94;5031133;28;20219;-91
2022/11/13 10:51:09;;;;;;;18.03;15.40;;;;;;;17.78;65.20;95932.28;5028219;28;20184;-92
2022/11/13 10:53:39;;;;;;;20.80;15.80;;;;;;;17.76;64.81;95929.03;5020206;28;20291;-92
2022/11/13 10:56:21;;;;;;;19.67;16.97;;;;;;;17.74;64.94;95931.75;5025470;28;20271;-89
2022/11/13 10:59:01;;;;;;;18.03;15.83;;;;;;;17.92;64.79;95961.97;5023494;28;20194;-90
2022/11/13 11:01:30;;;;;;;18.30;16.30;;;;;;;17.90;64.58;95962.13;5023591;28;20223;-92
2022/11/13 11:04:05;;;;;;;18.37;15.90;;;;;;;17.88;64.79;95952.91;5004280;28;20200;-90
2022/11/13 11:06:41;;;;;;;20.73;15.67;;;;;;;17.79;64.69;95939.91;5021874;28;20259;-91
2022/11/13 11:09:17;;;;;;;20.67;16.60;;;;;;;17.81;64.68;95944.91;5018549;28;20199;-89
2022/11/13 11:14:38;;;;;;;18.67;15.50;;;;;;;17.80;64.56;95951.06;5020472;28;20202;-91
2022/11/13 11:17:07;;;;;;;18.70;15.63;;;;;;;17.79;64.78;95949.44;5021732;28;20196;-91
2022/11/13 11:19:39;;;;;;;19.27;16.77;;;;;;;17.80;64.77;95948.47;5023103;28;20201;-90
2022/11/13 11:22:13;;;;;;;21.30;16.63;;;;;;;17.80;64.74;95949.28;5020819;28;20280;-92
2022/11/13 11:24:46;;;;;;;20.63;17.07;;;;;;;17.63;64.60;95911.28;5020262;28;20224;-89
2022/11/13 11:27:17;;;;;;;20.37;16.20;;;;;;;17.82;64.82;95935.38;5018042;28;20188;-88
2022/11/13 11:29:49;;;;;;;18.97;16.10;;;;;;;17.74;64.66;95925.78;5017145;28;20204;-89
2022/11/13 11:32:25;;;;;;;18.90;16.90;;;;;;;17.55;64.47;95890.53;5015517;28;20200;-90
2022/11/13 11:35:01;;;;;;;20.07;16.57;;;;;;;17.86;64.55;95924.56;5016970;28;20231;-89
2022/11/13 11:37:36;;;;;;;18.50;16.50;;;;;;;17.88;64.38;95933.00;5015122;28;20199;-90
2022/11/13 11:40:06;;;;;;;20.80;17.20;;;;;;;17.78;64.35;95914.97;5014637;28;20187;-89
2022/11/13 11:42:39;;;;;;;19.13;17.13;;;;;;;17.89;64.44;95921.69;5015359;28;20656;-91
2022/11/13 11:45:20;;;;;;;20.30;16.63;;;;;;;17.88;63.97;95925.25;5017453;28;20283;-88
2022/11/13 11:47:48;;;;;;;20.47;16.03;;;;;;;17.79;64.28;95915.81;5022264;28;20199;-88
2022/11/13 11:50:28;;;;;;;18.87;15.90;;;;;;;17.89;64.19;95921.69;5022776;28;20212;-91
2022/11/13 11:53:06;;;;;;;18.63;16.27;;;;;;;17.76;64.14;95903.97;5018606;28;20235;-90